Terminal Aerodrome Forecast
Issued by NWS

Current Version | Previous Version | Text Only | Print | Product List | Glossary On
Versions: 1 2 3 4 5 6 7 8 9 10 11 12 13 14 15 16 17 18 19 20 21 22 23
569
FTUS43 KMPX 241233 AAA
TAFAXN
TAF AMD
KAXN 241233Z 2413/2512 14008KT 5SM BR OVC003
      TEMPO 2413/2415 3/4SM BR VV002
     FM241500 17013G20KT P6SM BKN020
     FM241800 20013G21KT P6SM VCSH SCT025 BKN050
     FM250000 27007KT 6SM -SHRA BR OVC010
     FM250600 34007KT 4SM -SHRA BKN003 OVC007=

USA.gov is the U.S. government's official web portal to all federal, state and local government web resources and services.